Flight Track Log - Related Links

Times and Time Zones

All times are in EDT time to prevent confusion due to time zone crossing. See the N978PC flight status page for this flight to view local times or setup timezone preferences in your user account.

Time Position Orientation Groundspeed Altitude Reporting Facility
EDT Latitude Longitude Course Direction KTS MPH feet Rate Location/Type
Wed 03:33:40 PM 40.9000 -74.0333 306° West 187 215 2,100  Level New York TRACON
Wed 03:34:41 PM 40.9333 -74.0833 311° West 209 241 4,500 2,200 Climbing New York TRACON
Wed 03:35:40 PM 40.9333 -74.1667 270° West 229 264 6,500 1,800 Climbing New York TRACON
Wed 03:37:31 PM 40.9831 -74.3278 292° West 273 314 9,600 1,811 Climbing New York Center
Wed 03:38:29 PM 41.0556 -74.3372 354° North 252 290 11,600 2,237 Climbing New York Center
Wed 03:39:00 PM 41.0907 -74.6065 306° West  Level FlightAware Approximate
Wed 03:39:29 PM 41.1269 -74.3217 North 242 278 14,000  Level New York Center
Wed 03:40:30 PM 41.1625 -74.3814 308° West 220 253 15,200 992 Climbing New York Center
Wed 03:41:30 PM 41.1597 -74.4778 268° West 230 265 16,000 397 Climbing New York Center
Wed 03:42:31 PM 41.1478 -74.5928 262° West 305 351 16,000  Level New York Center
Wed 03:43:29 PM 41.1439 -74.7083 267° West 318 366 16,000 305 Level New York Center
Wed 03:44:29 PM 41.1886 -74.8044 302° West 323 372 16,600 1,082 Climbing New York Center
Wed 03:45:31 PM 41.2306 -74.9119 297° West 328 377 18,200 1,714 Climbing New York Center
Wed 03:46:28 PM 41.2731 -75.0083 300° West 317 365 20,000 1,983 Climbing New York Center
Wed 03:47:29 PM 41.3133 -75.1019 300° West 304 350 22,100 1,967 Climbing New York Center
Wed 03:48:30 PM 41.3478 -75.1872 298° West 288 331 24,000 1,736 Climbing New York Center
Wed 03:49:30 PM 41.3881 -75.2756 301° West 283 326 25,600 1,488 Climbing New York Center
Wed 03:50:31 PM 41.4261 -75.3694 298° West 283 326 27,000 1,220 Climbing New York Center
Wed 03:51:28 PM 41.4661 -75.4636 300° West 289 333 28,000 508 Climbing New York Center
Wed 03:52:29 PM 41.5033 -75.5797 293° West 312 359 28,000  Level New York Center
Wed 03:53:30 PM 41.5378 -75.7042 290° West 341 392 28,000 393 Level New York Center
Wed 03:54:31 PM 41.5758 -75.8344 291° West 366 421 28,800 1,261 Climbing New York Center
Wed 03:55:29 PM 41.6122 -75.9592 291° West 373 429 30,500 1,525 Climbing New York Center
Wed 03:56:29 PM 41.6444 -76.0756 290° West 360 414 31,800 1,230 Climbing New York Center
Wed 03:57:31 PM 41.6769 -76.1892 291° West 347 399 33,000 1,230 Climbing New York Center
Wed 03:58:31 PM 41.7092 -76.3031 291° West 334 384 34,300 1,311 Climbing New York Center
Wed 03:59:30 PM 41.7372 -76.4108 289° West 323 372 35,600 1,350 Climbing New York Center
Wed 04:00:31 PM 41.7661 -76.5081 292° West 304 350 37,000 1,160 Climbing New York Center
Wed 04:01:29 PM 41.7928 -76.6022 291° West 287 330 37,900 207 Climbing New York Center
Wed 04:05:21 PM 41.9022 -77.0036 290° West 309 356 38,000 21 Climbing Cleveland Center
Wed 04:06:21 PM 41.9350 -77.1217 291° West 329 379 38,000  Level Cleveland Center
Wed 04:07:21 PM 41.9656 -77.2375 290° West 334 384 38,000  Level Cleveland Center
Wed 04:08:21 PM 41.9983 -77.3614 290° West 346 398 38,000  Level Cleveland Center
Wed 04:09:21 PM 42.0306 -77.4800 290° West 357 411 38,000  Level Cleveland Center
Wed 04:10:21 PM 42.0631 -77.6017 290° West 362 417 38,000  Level Cleveland Center
Wed 04:11:21 PM 42.0956 -77.7261 289° West 362 417 38,000  Level Cleveland Center
Wed 04:12:21 PM 42.1275 -77.8478 290° West 357 411 38,000  Level Cleveland Center
Wed 04:13:21 PM 42.1594 -77.9669 290° West 352 405 38,000  Level Cleveland Center
Wed 04:14:21 PM 42.1914 -78.0889 290° West 352 405 38,000  Level Cleveland Center
Wed 04:15:21 PM 42.2233 -78.2139 289° West 352 405 38,000  Level Cleveland Center
Wed 04:16:21 PM 42.2550 -78.3361 289° West 352 405 38,000  Level Cleveland Center
Wed 04:18:21 PM 42.3178 -78.5783 289° West 342 394 38,000  Level Cleveland Center
Wed 04:19:21 PM 42.3489 -78.6981 289° West 342 394 38,000  Level Cleveland Center
Wed 04:20:21 PM 42.3800 -78.8208 289° West 342 394 38,000  Level Cleveland Center
Wed 04:21:21 PM 42.4114 -78.9578 287° West 342 394 38,000  Level Cleveland Center
Wed 04:22:21 PM 42.4419 -79.0778 289° West 342 394 38,000  Level Cleveland Center
Wed 04:23:21 PM 42.4728 -79.1925 290° West 350 403 38,000  Level Cleveland Center
Wed 04:24:21 PM 42.4950 -79.3189 283° West 350 403 38,000  Level Cleveland Center
Wed 04:25:21 PM 42.5025 -79.4483 275° West 350 403 38,000  Level Cleveland Center
Wed 04:26:21 PM 42.5081 -79.5806 273° West 350 403 38,000  Level Cleveland Center
Wed 04:27:21 PM 42.5133 -79.7297 273° West 350 403 38,000  Level Cleveland Center
Wed 04:28:21 PM 42.5225 -79.8422 276° West 350 403 38,000  Level Cleveland Center
Wed 04:29:21 PM 42.5233 -79.9889 270° West 350 403 38,000  Level Cleveland Center
Wed 04:30:21 PM 42.5303 -80.1211 274° West 350 403 38,000  Level Cleveland Center
Wed 04:31:21 PM 42.5369 -80.2394 274° West 350 403 38,000  Level Cleveland Center
Wed 04:32:21 PM 42.5414 -80.3747 273° West 355 409 38,000  Level Cleveland Center
Wed 04:33:21 PM 42.5456 -80.5014 273° West 346 398 38,000  Level Cleveland Center
Wed 04:34:21 PM 42.5497 -80.6367 272° West 352 405 38,000  Level Cleveland Center
Wed 04:35:21 PM 42.5539 -80.7664 273° West 353 406 38,000  Level Cleveland Center
Wed 04:36:21 PM 42.5619 -80.9044 275° West 353 406 38,000  Level Cleveland Center
Wed 04:37:21 PM 42.5636 -81.0314 271° West 353 406 38,000  Level Cleveland Center
Wed 04:38:21 PM 42.5711 -81.1697 274° West 353 406 38,000  Level Cleveland Center
Wed 04:39:21 PM 42.5747 -81.3078 272° West 348 400 38,000  Level Cleveland Center
Wed 04:40:21 PM 42.5800 -81.4403 273° West 348 400 38,000  Level Cleveland Center
Wed 04:41:21 PM 42.6019 -81.5619 284° West 341 392 38,000  Level Cleveland Center
Wed 04:42:21 PM 42.6236 -81.6864 283° West 341 392 38,000  Level Cleveland Center
Wed 04:43:21 PM 42.6433 -81.8108 282° West 335 386 38,000  Level Cleveland Center
Wed 04:44:21 PM 42.6669 -81.9358 284° West 335 386 38,000  Level Cleveland Center
Wed 04:45:21 PM 42.6903 -82.0606 284° West 340 391 38,000  Level Cleveland Center
Wed 04:46:21 PM 42.7094 -82.1881 282° West 340 391 38,000  Level Cleveland Center
Wed 04:47:21 PM 42.7328 -82.3131 284° West 340 391 38,000  Level Cleveland Center
Wed 04:48:21 PM 42.7517 -82.4381 282° West 335 386 38,000  Level Cleveland Center
Wed 04:50:21 PM 42.7953 -82.6939 283° West 342 394 38,000  Level Cleveland Center
Wed 04:51:21 PM 42.8158 -82.8164 283° West 342 394 38,000  Level Cleveland Center
Wed 04:52:21 PM 42.8383 -82.9417 284° West 342 394 38,000  Level Cleveland Center
Wed 04:53:21 PM 42.8586 -83.0700 282° West 342 394 38,000  Level Cleveland Center
Wed 04:54:21 PM 42.8786 -83.1925 283° West 337 388 38,000  Level Cleveland Center
Wed 04:55:21 PM 42.8989 -83.3153 283° West 337 388 38,000  Level Cleveland Center
Wed 04:56:21 PM 42.9167 -83.4408 281° West 337 388 38,000  Level Cleveland Center
Wed 04:57:21 PM 42.9386 -83.5611 284° West 337 388 38,000  Level Cleveland Center
Wed 04:58:21 PM 42.9564 -83.6811 281° West 337 388 38,000  Level Cleveland Center
Wed 04:59:21 PM 42.9717 -83.8067 279° West 337 388 38,000  Level Cleveland Center
Wed 05:00:21 PM 42.9847 -83.9322 278° West 337 388 38,000  Level Cleveland Center
Wed 05:02:13 PM 43.0086 -84.1542 278° West 331 381 38,000  Level Chicago Center
Wed 05:03:15 PM 43.0208 -84.2792 278° West 334 384 38,000  Level Chicago Center
Wed 05:04:17 PM 43.0331 -84.4039 278° West 334 384 38,000  Level Chicago Center
Wed 05:05:19 PM 43.0447 -84.5292 277° West 334 384 38,000  Level Chicago Center
Wed 05:06:22 PM 43.0561 -84.6525 277° West 331 381 38,000  Level Chicago Center
Wed 05:07:24 PM 43.0706 -84.8022 278° West 332 382 38,000  Level Chicago Center
Wed 05:08:26 PM 43.0814 -84.9247 277° West 326 375 38,000  Level Chicago Center
Wed 05:09:28 PM 43.0931 -85.0469 277° West 326 375 38,000  Level Chicago Center
Wed 05:10:30 PM 43.1047 -85.1697 277° West 327 376 38,000  Level Chicago Center
Wed 05:11:32 PM 43.1150 -85.2903 277° West 321 369 38,000  Level Chicago Center
Wed 05:12:34 PM 43.1278 -85.4367 277° West 323 372 38,000  Level Chicago Center
Wed 05:13:36 PM 43.1383 -85.5561 277° West 321 369 38,000 -194 Level Chicago Center
Wed 05:14:38 PM 43.1489 -85.6775 277° West 321 369 37,600 -576 Descending Chicago Center
Wed 05:15:41 PM 43.1606 -85.8044 277° West 336 387 36,800 -768 Descending Chicago Center
Wed 05:16:43 PM 43.1708 -85.9289 277° West 336 387 36,000 -823 Descending Chicago Center
Wed 05:17:45 PM 43.1822 -86.0719 276° West 323 372 35,100 -823 Descending Chicago Center
Wed 05:18:47 PM 43.1925 -86.1947 277° West 328 377 34,300 -774 Descending Chicago Center
Wed 05:19:49 PM 43.1981 -86.3208 274° West 333 383 33,500 -774 Descending Chicago Center
Wed 05:20:51 PM 43.1928 -86.4511 267° West 344 396 32,700 -726 Descending Chicago Center
Wed 05:21:53 PM 43.1872 -86.6086 267° West 345 397 32,000 -339 Descending Chicago Center
Wed 05:22:55 PM 43.1828 -86.7369 267° West 340 391 32,000  Level Chicago Center
Wed 05:23:57 PM 43.1786 -86.8650 267° West 338 389 32,000  Level Chicago Center
Wed 05:24:59 PM 43.1736 -86.9936 267° West 337 388 32,000  Level Chicago Center
Wed 05:26:02 PM 43.1686 -87.1208 267° West 338 389 32,000  Level Chicago Center
Wed 05:27:04 PM 43.1631 -87.2472 267° West 334 384 32,000 -145 Level Chicago Center
Wed 05:28:06 PM 43.1578 -87.3833 267° West 329 379 31,700 -726 Descending Chicago Center
Wed 05:29:08 PM 43.1514 -87.5361 267° West 340 391 30,500 -1,065 Descending Chicago Center
Wed 05:30:10 PM 43.1458 -87.6672 267° West 344 396 29,500 -968 Descending Chicago Center
Wed 05:31:12 PM 43.1397 -87.7972 266° West 341 392 28,500 -1,355 Descending Chicago Center
Wed 05:32:14 PM 43.1333 -87.9264 266° West 340 391 26,700 -1,694 Descending Chicago Center
Wed 05:33:16 PM 43.1278 -88.0544 267° West 337 388 25,000 -823 Descending Chicago Center
Wed 05:34:18 PM 43.1200 -88.1983 266° West 325 374 25,000  Level Chicago Center
Wed 05:35:20 PM 43.1161 -88.3208 268° West 320 368 25,000 -96 Level Chicago Center
Wed 05:36:23 PM 43.1206 -88.4428 273° West 319 367 24,800 -480 Descending Chicago Center
Wed 05:37:25 PM 43.1233 -88.5714 272° West 332 382 24,000 -1,452 Descending Chicago Center
Wed 05:38:27 PM 43.1258 -88.6983 272° West 332 382 21,800 -2,661 Descending Chicago Center
Wed 05:39:29 PM 43.1294 -88.8181 272° West 315 362 18,500 -2,952 Descending Chicago Center
Wed 05:40:31 PM 43.1308 -88.9306 271° West 297 342 15,700 -2,710 Descending Chicago Center

Login

Don't have an account? Register now (free) for customized features, flight alerts, and more!